Time;durP1;ratioP1;P1;durP2;ratioP2;P2;SDS_P1;SDS_P2;PMS_P1;PMS_P2;Temp;Humidity;BMP_temperature;BMP_pressure;BME280_temperature;BME280_humidity;BME280_pressure;Samples;Min_cycle;Max_cycle;Signal;HPM_P1;HPM_P2
2021/07/11 00:01:47;;;;;;;8.88;4.90;;;16.50;99.90;;;;;;4956558;28;20259;-73
2021/07/11 00:04:13;;;;;;;5.28;4.43;;;16.50;99.90;;;;;;4963104;28;20185;-72
2021/07/11 00:06:39;;;;;;;9.60;4.80;;;16.50;99.90;;;;;;4956250;28;20200;-74
2021/07/11 00:09:06;;;;;;;5.75;5.15;;;16.50;99.90;;;;;;4959568;28;20221;-72
2021/07/11 00:11:32;;;;;;;5.78;4.30;;;16.40;99.90;;;;;;4954443;28;20213;-73
2021/07/11 00:14:01;;;;;;;6.05;4.93;;;16.40;99.90;;;;;;4957752;28;20272;-73
2021/07/11 00:16:28;;;;;;;6.53;5.00;;;16.40;99.90;;;;;;4957152;28;20236;-73
2021/07/11 00:18:54;;;;;;;6.72;5.10;;;16.30;99.90;;;;;;4961157;28;20298;-72
2021/07/11 00:21:21;;;;;;;5.28;4.32;;;16.30;99.90;;;;;;4956846;28;20707;-72
2021/07/11 00:23:46;;;;;;;5.65;4.55;;;16.30;99.90;;;;;;4953210;28;20258;-72
2021/07/11 00:26:12;;;;;;;6.10;4.40;;;16.30;99.90;;;;;;4954659;28;20193;-72
2021/07/11 00:28:38;;;;;;;5.43;4.43;;;16.40;99.90;;;;;;4960126;28;20192;-72
2021/07/11 00:31:04;;;;;;;5.90;4.88;;;16.40;99.90;;;;;;4959604;28;20689;-72
2021/07/11 00:33:30;;;;;;;7.47;5.38;;;16.40;99.90;;;;;;4957897;28;20535;-71
2021/07/11 00:35:56;;;;;;;5.80;5.20;;;16.30;99.90;;;;;;4960987;28;20218;-73
2021/07/11 00:38:22;;;;;;;5.97;5.20;;;16.40;99.90;;;;;;4955243;28;20181;-72
2021/07/11 00:40:48;;;;;;;6.25;4.95;;;16.30;99.90;;;;;;4956856;28;20735;-73
2021/07/11 00:43:14;;;;;;;8.23;4.95;;;16.30;99.90;;;;;;4962074;28;20189;-73
2021/07/11 00:45:40;;;;;;;4.63;4.00;;;16.30;99.90;;;;;;4959616;28;20653;-71
2021/07/11 00:48:06;;;;;;;6.85;4.80;;;16.30;99.90;;;;;;4955223;28;20558;-71
2021/07/11 00:50:32;;;;;;;5.75;4.90;;;16.30;99.90;;;;;;4959121;28;20201;-71
2021/07/11 00:52:58;;;;;;;7.80;5.03;;;16.30;99.90;;;;;;4959641;28;20200;-71
2021/07/11 00:55:24;;;;;;;6.72;5.30;;;16.30;99.90;;;;;;4959442;28;20193;-73
2021/07/11 00:57:50;;;;;;;5.05;4.53;;;16.20;99.90;;;;;;4959886;28;20185;-72
2021/07/11 01:00:16;;;;;;;5.57;4.88;;;16.20;99.90;;;;;;4960172;28;20205;-71
2021/07/11 01:03:14;;;;;;;6.88;4.63;;;16.20;99.90;;;;;;4955753;28;20268;-72
2021/07/11 01:05:42;;;;;;;5.10;4.47;;;16.20;99.90;;;;;;4954939;28;20193;-73
2021/07/11 01:08:13;;;;;;;7.47;4.93;;;16.10;99.90;;;;;;4958736;28;20699;-72
2021/07/11 01:10:44;;;;;;;6.40;5.28;;;16.10;99.90;;;;;;4954380;28;20581;-73
2021/07/11 01:13:14;;;;;;;6.85;5.38;;;16.10;99.90;;;;;;4956661;28;20189;-73
2021/07/11 01:15:46;;;;;;;5.40;4.50;;;16.00;99.90;;;;;;4956091;28;20231;-72
2021/07/11 01:18:13;;;;;;;6.53;5.30;;;16.20;99.90;;;;;;4956205;28;20192;-72
2021/07/11 01:21:01;;;;;;;7.28;5.22;;;16.00;99.90;;;;;;4952842;28;20233;-73
2021/07/11 01:23:47;;;;;;;6.40;5.03;;;16.00;99.90;;;;;;4956657;28;20277;-71
2021/07/11 01:26:14;;;;;;;7.15;4.63;;;16.00;99.90;;;;;;4953207;28;20185;-72
2021/07/11 01:28:41;;;;;;;9.23;5.00;;;15.90;99.90;;;;;;4956088;28;20612;-74
2021/07/11 01:31:08;;;;;;;5.47;4.40;;;15.90;99.90;;;;;;4957012;28;20256;-72
2021/07/11 01:33:37;;;;;;;5.95;5.22;;;15.90;99.90;;;;;;4955934;28;20192;-72
2021/07/11 01:36:04;;;;;;;6.07;4.75;;;15.80;99.90;;;;;;4957563;28;20643;-72
2021/07/11 01:38:32;;;;;;;5.78;4.03;;;15.70;99.90;;;;;;4959455;28;20185;-72
2021/07/11 01:40:58;;;;;;;6.32;4.65;;;15.70;99.90;;;;;;4956192;28;20280;-72
2021/07/11 01:43:25;;;;;;;6.25;5.63;;;15.70;99.90;;;;;;4959511;28;20704;-73
2021/07/11 01:45:53;;;;;;;6.43;5.05;;;15.60;99.90;;;;;;4954985;28;20668;-72
2021/07/11 01:48:19;;;;;;;6.13;5.03;;;15.70;99.90;;;;;;4952042;28;20244;-72
2021/07/11 01:50:52;;;;;;;5.75;5.15;;;15.70;99.90;;;;;;4957838;28;20213;-71
2021/07/11 01:53:46;;;;;;;8.68;5.60;;;15.60;99.90;;;;;;4957233;28;20199;-72
2021/07/11 01:56:13;;;;;;;7.35;5.15;;;15.60;99.90;;;;;;4952700;28;20304;-72
2021/07/11 01:58:41;;;;;;;8.15;5.25;;;15.50;99.90;;;;;;4953610;28;20200;-72
2021/07/11 02:01:10;;;;;;;8.40;5.53;;;15.50;99.90;;;;;;4957395;28;20575;-71
2021/07/11 02:03:36;;;;;;;6.35;5.63;;;15.40;99.90;;;;;;4956628;28;20197;-71
2021/07/11 02:06:03;;;;;;;5.90;4.78;;;15.40;99.90;;;;;;4958366;28;20201;-73
2021/07/11 02:08:28;;;;;;;7.13;5.60;;;15.40;99.90;;;;;;4955322;28;20201;-72
2021/07/11 02:10:55;;;;;;;5.95;5.35;;;15.40;99.90;;;;;;4955372;28;20247;-73
2021/07/11 02:13:38;;;;;;;8.52;5.35;;;15.40;99.90;;;;;;4959380;28;20189;-74
2021/07/11 02:16:31;;;;;;;5.70;4.95;;;15.30;99.90;;;;;;4956882;28;20645;-72
2021/07/11 02:18:58;;;;;;;10.13;5.05;;;15.30;99.90;;;;;;4931895;28;20193;-72
2021/07/11 02:21:26;;;;;;;6.85;6.15;;;15.30;99.90;;;;;;4957308;28;20216;-71
2021/07/11 02:23:52;;;;;;;6.65;5.15;;;15.30;99.90;;;;;;4956440;28;20649;-71
2021/07/11 02:26:18;;;;;;;7.40;5.15;;;15.30;99.90;;;;;;4957569;28;20323;-71
2021/07/11 02:28:45;;;;;;;9.13;5.57;;;15.20;99.90;;;;;;4953982;28;20547;-73
2021/07/11 02:31:12;;;;;;;6.68;4.93;;;15.20;99.90;;;;;;4956031;28;20185;-72
2021/07/11 02:33:41;;;;;;;6.28;5.38;;;15.20;99.90;;;;;;4955407;28;20264;-71
2021/07/11 02:36:19;;;;;;;6.95;5.22;;;15.20;99.90;;;;;;4952326;28;20296;-72
2021/07/11 02:39:00;;;;;;;6.20;4.88;;;15.10;99.90;;;;;;4956365;28;20197;-71
2021/07/11 02:41:28;;;;;;;5.28;4.78;;;15.10;99.90;;;;;;4957445;28;20229;-70
2021/07/11 02:43:56;;;;;;;5.55;4.80;;;15.10;99.90;;;;;;4959309;28;20284;-72
2021/07/11 02:46:29;;;;;;;7.28;5.53;;;15.20;99.90;;;;;;4955333;28;20189;-72
2021/07/11 02:48:56;;;;;;;8.75;5.97;;;15.20;99.90;;;;;;4952783;28;20389;-72
2021/07/11 02:51:27;;;;;;;8.82;5.22;;;15.00;99.90;;;;;;4956990;28;20254;-73
2021/07/11 02:53:57;;;;;;;6.05;4.75;;;15.00;99.90;;;;;;4958303;28;20187;-71
2021/07/11 02:56:25;;;;;;;5.60;4.82;;;15.00;99.90;;;;;;4954278;28;20696;-72
2021/07/11 02:58:56;;;;;;;7.50;5.20;;;15.00;99.90;;;;;;4955429;28;20642;-72
2021/07/11 03:01:24;;;;;;;8.20;4.97;;;15.00;99.90;;;;;;4957211;28;20189;-72
2021/07/11 03:03:53;;;;;;;6.38;5.00;;;15.00;99.90;;;;;;4956335;28;20589;-71
2021/07/11 03:06:18;;;;;;;6.72;5.15;;;15.00;99.90;;;;;;4960774;28;20185;-72
2021/07/11 03:08:44;;;;;;;7.00;4.43;;;14.90;99.90;;;;;;4959408;28;20231;-73
2021/07/11 03:11:11;;;;;;;8.07;4.75;;;14.90;99.90;;;;;;4963463;28;20196;-72
2021/07/11 03:13:38;;;;;;;6.32;4.43;;;14.90;99.90;;;;;;4959124;28;20190;-75
2021/07/11 03:16:07;;;;;;;5.80;4.38;;;14.90;99.90;;;;;;4959663;28;20259;-72
2021/07/11 03:18:35;;;;;;;6.25;5.30;;;14.90;99.90;;;;;;4959821;28;20653;-72
2021/07/11 03:21:03;;;;;;;6.15;4.60;;;14.90;99.90;;;;;;4957622;28;20201;-70
2021/07/11 03:23:30;;;;;;;7.03;4.43;;;14.90;99.90;;;;;;4957511;28;20232;-72
2021/07/11 03:25:57;;;;;;;6.88;5.20;;;14.90;99.90;;;;;;4956883;28;20219;-72
2021/07/11 03:28:23;;;;;;;6.90;5.50;;;15.00;99.90;;;;;;4960628;28;20249;-73
2021/07/11 03:30:52;;;;;;;8.20;5.75;;;14.90;99.90;;;;;;4959590;28;20606;-72
2021/07/11 03:33:20;;;;;;;5.95;5.28;;;15.00;99.90;;;;;;4961471;28;20675;-72
2021/07/11 03:35:54;;;;;;;7.30;4.78;;;15.00;99.90;;;;;;4962720;28;20248;-72
2021/07/11 03:38:23;;;;;;;6.28;5.63;;;15.00;99.90;;;;;;4960680;28;20181;-73
2021/07/11 03:40:54;;;;;;;7.07;5.38;;;15.00;99.90;;;;;;4962314;28;20208;-72
2021/07/11 03:43:23;;;;;;;8.20;5.13;;;15.00;99.90;;;;;;4962439;28;20181;-73
2021/07/11 03:45:53;;;;;;;7.05;5.82;;;15.10;99.90;;;;;;4958218;28;20193;-73
2021/07/11 03:48:25;;;;;;;6.70;5.28;;;15.10;99.90;;;;;;4961155;28;20193;-73
2021/07/11 03:50:55;;;;;;;5.07;4.55;;;15.20;99.90;;;;;;4960191;28;20687;-72
2021/07/11 03:53:24;;;;;;;6.07;5.10;;;15.30;99.90;;;;;;4965239;28;20227;-72
2021/07/11 03:55:51;;;;;;;7.90;5.72;;;15.30;99.90;;;;;;4958925;28;20263;-73
2021/07/11 03:58:21;;;;;;;5.82;5.15;;;15.20;99.90;;;;;;4956152;28;20663;-72
2021/07/11 04:00:48;;;;;;;8.10;5.30;;;15.20;99.90;;;;;;4954299;28;20607;-72
2021/07/11 04:03:15;;;;;;;11.07;4.97;;;15.30;99.90;;;;;;4960766;28;20177;-72
2021/07/11 04:05:41;;;;;;;6.97;5.20;;;15.30;99.90;;;;;;4954567;28;20182;-72
2021/07/11 04:08:13;;;;;;;6.40;4.90;;;15.40;99.90;;;;;;4958802;28;20252;-72
2021/07/11 04:10:40;;;;;;;5.78;5.05;;;15.40;99.90;;;;;;4961095;28;20200;-73
2021/07/11 04:13:06;;;;;;;6.30;5.40;;;15.40;99.90;;;;;;4958139;28;20185;-71
2021/07/11 04:15:33;;;;;;;6.57;4.85;;;15.40;99.90;;;;;;4956071;28;20182;-72
2021/07/11 04:18:05;;;;;;;7.80;5.28;;;15.40;99.90;;;;;;4956705;28;20181;-72
2021/07/11 04:20:32;;;;;;;6.57;4.90;;;15.50;99.90;;;;;;4955820;28;20664;-72
2021/07/11 04:23:00;;;;;;;5.85;5.05;;;15.60;99.90;;;;;;4962252;28;20275;-72
2021/07/11 04:25:31;;;;;;;9.77;5.60;;;15.80;99.90;;;;;;4955603;28;20186;-72
2021/07/11 04:27:57;;;;;;;7.20;5.25;;;15.80;99.90;;;;;;4957998;28;20207;-73
2021/07/11 04:30:23;;;;;;;5.40;4.60;;;15.90;99.90;;;;;;4959125;28;20693;-72
2021/07/11 04:32:49;;;;;;;6.13;5.03;;;15.90;99.90;;;;;;4958020;28;20209;-73
2021/07/11 04:35:15;;;;;;;8.82;5.65;;;16.00;99.90;;;;;;4959876;28;20266;-72
2021/07/11 04:37:41;;;;;;;4.65;4.25;;;16.00;99.90;;;;;;4958395;28;20213;-73
2021/07/11 04:40:07;;;;;;;9.60;5.78;;;16.00;99.90;;;;;;4960380;28;20705;-74
2021/07/11 04:42:33;;;;;;;6.82;5.15;;;16.10;99.90;;;;;;4961376;28;20192;-74
2021/07/11 04:45:01;;;;;;;6.63;5.10;;;16.20;99.90;;;;;;4957263;28;20652;-71
2021/07/11 04:47:27;;;;;;;9.15;5.10;;;16.40;99.90;;;;;;4959764;28;20557;-73
2021/07/11 04:49:53;;;;;;;5.63;4.35;;;16.50;99.90;;;;;;4957076;28;20205;-72
2021/07/11 04:52:18;;;;;;;9.93;5.40;;;16.60;99.90;;;;;;4958938;28;20256;-72
2021/07/11 04:54:44;;;;;;;8.52;4.18;;;16.60;99.90;;;;;;4960020;28;20186;-73
2021/07/11 04:57:10;;;;;;;6.05;4.57;;;16.80;99.90;;;;;;4960406;28;20259;-72
2021/07/11 04:59:35;;;;;;;6.43;4.97;;;16.90;99.90;;;;;;4958157;28;20578;-73
2021/07/11 05:02:01;;;;;;;5.18;4.65;;;17.00;99.90;;;;;;4959514;28;20190;-73
2021/07/11 05:04:27;;;;;;;5.68;4.88;;;17.30;99.90;;;;;;4955203;28;20185;-73
2021/07/11 05:06:53;;;;;;;5.90;4.80;;;17.60;99.90;;;;;;4958521;28;20190;-73
2021/07/11 05:09:18;;;;;;;6.53;5.15;;;18.00;99.90;;;;;;4958541;28;20249;-71
2021/07/11 05:11:44;;;;;;;5.35;4.60;;;18.50;99.90;;;;;;4959328;28;20647;-72
2021/07/11 05:14:09;;;;;;;6.70;5.60;;;18.70;99.90;;;;;;4960543;28;20279;-71
2021/07/11 05:16:35;;;;;;;6.72;5.65;;;18.70;99.90;;;;;;4959033;28;20695;-73
2021/07/11 05:19:02;;;;;;;5.57;4.82;;;18.90;99.90;;;;;;4955927;28;20220;-74
2021/07/11 05:21:29;;;;;;;6.38;4.82;;;19.80;99.90;;;;;;4956234;28;20764;-71
2021/07/11 05:23:56;;;;;;;6.65;4.93;;;20.70;99.90;;;;;;4953986;28;20178;-71
2021/07/11 05:26:22;;;;;;;8.75;5.45;;;21.30;99.90;;;;;;4954468;28;20288;-72
2021/07/11 05:28:48;;;;;;;5.68;5.07;;;21.50;99.90;;;;;;4956339;28;20685;-72
2021/07/11 05:31:13;;;;;;;6.15;5.13;;;22.10;99.90;;;;;;4955626;28;20227;-72
2021/07/11 05:33:39;;;;;;;5.35;4.80;;;21.80;99.90;;;;;;4962578;28;20185;-71
2021/07/11 05:36:07;;;;;;;6.57;5.13;;;21.40;99.90;;;;;;4958721;28;20209;-71
2021/07/11 05:38:33;;;;;;;10.18;6.05;;;20.90;99.90;;;;;;4958835;28;20262;-72
2021/07/11 05:40:59;;;;;;;9.13;5.68;;;20.70;99.90;;;;;;4958169;28;20307;-73
2021/07/11 05:43:24;;;;;;;6.03;4.88;;;20.30;99.90;;;;;;4953494;28;20295;-71
2021/07/11 05:45:50;;;;;;;5.60;5.00;;;20.10;99.90;;;;;;4955570;28;20185;-71
2021/07/11 05:48:16;;;;;;;5.93;5.28;;;19.80;99.90;;;;;;4955943;28;20193;-73
2021/07/11 05:50:41;;;;;;;7.78;5.10;;;19.60;99.90;;;;;;4960111;28;20216;-72
2021/07/11 05:53:10;;;;;;;5.43;4.85;;;19.50;99.90;;;;;;4958033;28;20212;-72
2021/07/11 05:55:40;;;;;;;5.85;5.13;;;19.50;99.90;;;;;;4955260;28;20771;-74
2021/07/11 05:58:06;;;;;;;6.85;5.28;;;19.40;99.90;;;;;;4953271;28;20404;-71
2021/07/11 06:00:32;;;;;;;6.15;5.10;;;19.40;99.90;;;;;;4957917;28;20219;-72
2021/07/11 06:02:58;;;;;;;7.80;4.97;;;19.50;99.90;;;;;;4960193;28;20184;-73
2021/07/11 06:05:24;;;;;;;7.15;5.60;;;19.60;99.90;;;;;;4955329;28;20272;-72
2021/07/11 06:07:49;;;;;;;7.25;5.72;;;19.40;99.90;;;;;;4955363;28;20204;-72
2021/07/11 06:10:16;;;;;;;8.75;5.68;;;19.30;99.90;;;;;;4956364;28;20227;-72
2021/07/11 06:12:42;;;;;;;7.40;5.82;;;19.10;99.90;;;;;;4960876;28;20180;-72
2021/07/11 06:15:09;;;;;;;5.63;5.03;;;19.00;99.90;;;;;;4956440;28;20274;-73
2021/07/11 06:17:35;;;;;;;7.47;5.20;;;19.00;99.90;;;;;;4955890;28;20201;-72
2021/07/11 06:20:04;;;;;;;6.75;5.97;;;19.00;99.90;;;;;;4950227;28;20665;-72
2021/07/11 06:22:30;;;;;;;6.82;6.13;;;18.90;99.90;;;;;;4952767;28;20189;-72
2021/07/11 06:24:56;;;;;;;6.53;5.10;;;18.80;99.90;;;;;;4954959;28;20255;-72
2021/07/11 06:27:22;;;;;;;7.28;6.22;;;18.60;99.90;;;;;;4958148;28;20252;-73
2021/07/11 06:29:48;;;;;;;9.40;5.95;;;18.50;99.90;;;;;;4950737;28;20664;-73
2021/07/11 06:32:14;;;;;;;8.60;4.95;;;18.40;99.90;;;;;;4959025;28;20195;-72
2021/07/11 06:34:40;;;;;;;6.72;5.78;;;18.40;99.90;;;;;;4953606;28;20181;-74
2021/07/11 06:37:05;;;;;;;7.68;5.90;;;18.40;99.90;;;;;;4958383;28;20220;-72
2021/07/11 06:39:31;;;;;;;10.02;6.07;;;18.50;99.90;;;;;;4952962;28;20205;-73
2021/07/11 06:41:57;;;;;;;7.57;5.30;;;18.50;99.90;;;;;;4958290;28;20173;-72
2021/07/11 06:44:22;;;;;;;8.93;5.70;;;18.60;99.90;;;;;;4959738;28;20181;-74
2021/07/11 06:46:48;;;;;;;6.72;5.60;;;18.50;99.90;;;;;;4958507;28;20185;-72
2021/07/11 06:49:13;;;;;;;7.93;5.80;;;18.60;99.90;;;;;;4957178;28;20708;-72
2021/07/11 06:51:39;;;;;;;10.45;6.40;;;18.70;99.90;;;;;;4953104;28;20181;-72
2021/07/11 06:54:05;;;;;;;6.88;5.05;;;18.80;99.90;;;;;;4958628;28;20557;-72
2021/07/11 06:56:30;;;;;;;7.82;5.60;;;19.00;99.90;;;;;;4959081;28;20216;-70
2021/07/11 06:58:56;;;;;;;6.63;5.93;;;19.30;99.90;;;;;;4955697;28;20186;-74
2021/07/11 07:01:22;;;;;;;6.13;5.18;;;19.70;99.90;;;;;;4960132;28;20262;-74
2021/07/11 07:03:47;;;;;;;6.15;5.38;;;20.40;99.90;;;;;;4959886;28;20268;-74
2021/07/11 07:06:13;;;;;;;5.53;5.03;;;21.10;99.90;;;;;;4956704;28;20192;-75
2021/07/11 07:08:38;;;;;;;6.28;5.28;;;21.40;99.90;;;;;;4957294;28;20204;-73
2021/07/11 07:11:04;;;;;;;6.28;5.25;;;21.60;99.90;;;;;;4956031;28;20205;-72
2021/07/11 07:13:30;;;;;;;7.75;5.47;;;22.10;99.90;;;;;;4957883;28;20189;-74
2021/07/11 07:15:56;;;;;;;7.50;5.57;;;22.40;99.90;;;;;;4957363;28;20305;-74
2021/07/11 07:18:22;;;;;;;5.32;4.82;;;23.00;99.90;;;;;;4962035;28;20683;-74
2021/07/11 07:20:48;;;;;;;5.10;4.70;;;23.10;99.90;;;;;;4954264;28;20205;-73
2021/07/11 07:23:13;;;;;;;5.88;5.07;;;23.30;99.90;;;;;;4955164;28;20735;-71
2021/07/11 07:25:39;;;;;;;5.18;4.68;;;23.50;99.90;;;;;;4958752;28;20205;-72
2021/07/11 07:28:06;;;;;;;6.55;5.85;;;23.30;99.90;;;;;;4954362;28;20189;-74
2021/07/11 07:30:32;;;;;;;5.30;4.82;;;23.50;99.90;;;;;;4961398;28;20205;-74
2021/07/11 07:32:58;;;;;;;8.13;5.07;;;23.50;99.90;;;;;;4956321;28;20185;-72
2021/07/11 07:35:23;;;;;;;5.50;4.35;;;23.70;99.90;;;;;;4959185;28;20181;-72
2021/07/11 07:37:49;;;;;;;4.75;4.25;;;23.80;99.90;;;;;;4956764;28;20197;-74
2021/07/11 07:40:17;;;;;;;6.15;4.75;;;23.80;99.90;;;;;;4958953;28;20208;-72
2021/07/11 07:42:44;;;;;;;4.78;4.38;;;23.60;99.90;;;;;;4958377;28;20185;-72
2021/07/11 07:45:11;;;;;;;4.80;4.40;;;23.40;99.90;;;;;;4958729;28;20268;-74
2021/07/11 07:47:36;;;;;;;4.63;4.18;;;23.50;99.90;;;;;;4957532;28;20196;-74
2021/07/11 07:50:05;;;;;;;4.63;4.20;;;23.60;99.90;;;;;;4959030;28;20228;-74
2021/07/11 07:52:31;;;;;;;5.72;4.18;;;23.80;99.90;;;;;;4959741;28;20675;-74
2021/07/11 07:54:57;;;;;;;5.55;4.40;;;24.30;99.90;;;;;;4961036;28;20197;-74
2021/07/11 07:57:22;;;;;;;4.88;4.18;;;24.60;99.90;;;;;;4954902;28;20660;-73
2021/07/11 07:59:48;;;;;;;4.75;4.25;;;24.60;99.90;;;;;;4958086;28;20212;-75
2021/07/11 08:02:14;;;;;;;4.03;3.63;;;24.70;99.90;;;;;;4958056;28;20197;-74
2021/07/11 08:04:39;;;;;;;4.75;4.35;;;24.80;99.90;;;;;;4955985;28;20200;-75
2021/07/11 08:07:05;;;;;;;4.85;4.28;;;24.70;99.90;;;;;;4956742;28;20288;-73
2021/07/11 08:09:30;;;;;;;4.35;3.95;;;24.80;99.90;;;;;;4956275;28;21145;-72
2021/07/11 08:11:56;;;;;;;4.20;3.80;;;24.90;99.90;;;;;;4956135;28;20216;-76
2021/07/11 08:14:22;;;;;;;4.82;4.43;;;25.20;99.90;;;;;;4958923;28;20244;-73
2021/07/11 08:16:47;;;;;;;3.90;3.55;;;25.40;99.90;;;;;;4956444;28;20248;-71
2021/07/11 08:19:13;;;;;;;3.88;3.53;;;25.70;99.90;;;;;;4957298;28;20201;-73
2021/07/11 08:21:39;;;;;;;3.78;3.25;;;26.10;99.90;;;;;;4945736;28;20189;-75
2021/07/11 08:24:05;;;;;;;3.05;2.75;;;26.00;99.90;;;;;;4954546;28;20734;-73
2021/07/11 08:26:32;;;;;;;4.60;2.97;;;26.00;99.90;;;;;;4958884;28;20182;-74
2021/07/11 08:28:58;;;;;;;3.90;3.20;;;26.10;99.90;;;;;;4957863;28;20657;-73
2021/07/11 08:31:24;;;;;;;3.55;3.25;;;25.90;99.90;;;;;;4959578;28;20279;-73
2021/07/11 08:33:50;;;;;;;4.63;3.50;;;25.90;99.90;;;;;;4958000;28;20289;-73
2021/07/11 08:36:15;;;;;;;3.08;2.80;;;25.80;99.90;;;;;;4957823;28;20271;-73
2021/07/11 08:38:41;;;;;;;4.28;3.88;;;26.00;99.90;;;;;;4955633;28;20223;-74
2021/07/11 08:41:07;;;;;;;3.83;3.40;;;26.00;99.90;;;;;;4955018;28;20182;-73
2021/07/11 08:43:33;;;;;;;3.45;3.15;;;25.90;99.90;;;;;;4959007;28;20180;-75
2021/07/11 08:45:59;;;;;;;3.30;3.00;;;25.90;99.90;;;;;;4955751;28;20285;-71
2021/07/11 08:48:24;;;;;;;3.53;3.22;;;25.90;99.90;;;;;;4955938;28;20321;-71
2021/07/11 08:50:50;;;;;;;2.80;2.60;;;26.10;99.90;;;;;;4937990;28;20587;-73
2021/07/11 08:53:16;;;;;;;3.72;2.88;;;26.20;99.90;;;;;;4940622;28;20570;-73
2021/07/11 08:55:43;;;;;;;3.00;2.80;;;26.00;99.90;;;;;;4953970;28;20185;-72
2021/07/11 08:58:12;;;;;;;3.20;2.90;;;26.20;99.90;;;;;;4961885;28;20196;-72
2021/07/11 09:00:38;;;;;;;3.03;2.72;;;26.20;99.90;;;;;;4957272;28;20700;-73
2021/07/11 09:03:06;;;;;;;2.88;2.65;;;26.20;99.90;;;;;;4955102;28;20660;-76
2021/07/11 09:05:36;;;;;;;2.55;2.35;;;26.00;99.90;;;;;;4960776;28;20188;-71
2021/07/11 09:08:12;;;;;;;2.78;2.58;;;26.20;99.90;;;;;;4957431;28;20212;-73
2021/07/11 09:10:47;;;;;;;2.88;2.63;;;26.30;99.90;;;;;;4957086;28;20236;-75
2021/07/11 09:13:15;;;;;;;2.88;2.58;;;26.50;99.90;;;;;;4954101;28;20188;-74
2021/07/11 09:15:44;;;;;;;2.65;2.45;;;26.70;99.90;;;;;;4953367;28;20646;-72
2021/07/11 09:18:10;;;;;;;2.88;2.67;;;26.30;99.90;;;;;;4959052;28;20240;-75
2021/07/11 09:21:01;;;;;;;4.93;3.38;;;26.60;99.90;;;;;;4956052;28;20623;-73
2021/07/11 09:23:29;;;;;;;2.70;2.50;;;27.00;99.90;;;;;;4953426;28;20213;-73
2021/07/11 09:26:02;;;;;;;3.88;2.65;;;27.40;99.90;;;;;;4954869;28;20462;-74
2021/07/11 09:28:29;;;;;;;3.65;2.85;;;27.80;99.90;;;;;;4954614;28;20241;-74
2021/07/11 09:31:14;;;;;;;2.88;2.67;;;28.00;99.90;;;;;;4954428;28;20209;-73
2021/07/11 09:33:45;;;;;;;2.35;2.15;;;28.00;99.90;;;;;;4959588;28;20558;-74
2021/07/11 09:36:17;;;;;;;2.78;2.58;;;28.20;99.90;;;;;;4956664;28;20227;-73
2021/07/11 09:38:48;;;;;;;2.47;2.28;;;27.90;99.90;;;;;;4956694;28;20247;-74
2021/07/11 09:41:15;;;;;;;2.15;2.05;;;28.00;99.90;;;;;;4958653;28;20188;-74
2021/07/11 09:43:41;;;;;;;2.75;2.47;;;28.00;99.90;;;;;;4959232;28;20181;-75
2021/07/11 09:46:14;;;;;;;2.00;1.90;;;27.90;99.90;;;;;;4959015;28;20219;-75
2021/07/11 09:48:40;;;;;;;1.98;1.88;;;27.60;99.90;;;;;;4957088;28;20267;-73
2021/07/11 09:51:23;;;;;;;1.90;1.80;;;27.50;99.90;;;;;;4958267;28;20304;-74
2021/07/11 09:53:49;;;;;;;2.10;1.90;;;27.70;99.90;;;;;;4956117;28;20182;-73
2021/07/11 09:56:36;;;;;;;3.05;1.80;;;27.90;99.90;;;;;;4957224;28;20212;-72
2021/07/11 09:59:05;;;;;;;2.42;2.00;;;27.90;99.90;;;;;;5083698;23;20300;-78
2021/07/11 10:01:32;;;;;;;3.40;2.30;;;28.10;99.90;;;;;;4963829;28;20228;-77
2021/07/11 10:03:59;;;;;;;2.33;2.13;;;28.40;99.90;;;;;;4965993;28;20244;-77
2021/07/11 10:06:26;;;;;;;2.05;1.83;;;28.30;99.90;;;;;;4963978;28;20559;-82
2021/07/11 10:08:52;;;;;;;2.35;2.15;;;28.50;99.90;;;;;;4963540;28;20240;-76
2021/07/11 10:11:18;;;;;;;2.35;2.15;;;28.60;99.90;;;;;;4961482;28;20193;-77
2021/07/11 10:13:43;;;;;;;2.42;2.22;;;28.70;99.90;;;;;;4960384;28;20185;-78
2021/07/11 10:16:11;;;;;;;2.42;2.22;;;28.50;99.90;;;;;;4962587;28;20264;-76
2021/07/11 10:18:39;;;;;;;2.17;2.08;;;28.30;99.90;;;;;;4962363;28;20485;-78
2021/07/11 10:21:06;;;;;;;2.25;2.00;;;28.40;99.90;;;;;;4961902;28;20608;-78
2021/07/11 10:23:37;;;;;;;1.95;1.85;;;28.30;99.90;;;;;;4962072;28;20504;-79
2021/07/11 10:26:04;;;;;;;2.58;2.20;;;28.20;99.90;;;;;;4963553;28;20263;-78
2021/07/11 10:28:35;;;;;;;2.75;2.25;;;28.30;99.90;;;;;;4964489;28;20227;-80
2021/07/11 10:31:03;;;;;;;2.00;1.80;;;28.20;99.90;;;;;;4963885;28;20209;-77
2021/07/11 10:33:29;;;;;;;4.10;1.85;;;28.40;99.90;;;;;;4965430;28;20185;-80
2021/07/11 10:36:00;;;;;;;2.33;2.00;;;28.50;99.90;;;;;;4962901;28;21027;-79
2021/07/11 10:38:39;;;;;;;2.13;2.00;;;28.40;99.90;;;;;;4963845;28;20228;-77
2021/07/11 10:41:18;;;;;;;1.90;1.80;;;28.10;99.90;;;;;;4964619;28;20181;-77
2021/07/11 10:44:09;;;;;;;1.95;1.85;;;27.90;99.90;;;;;;4964655;28;20197;-80
2021/07/11 10:46:48;;;;;;;2.60;2.40;;;28.10;99.90;;;;;;4966990;28;20220;-80
2021/07/11 10:49:23;;;;;;;2.03;1.92;;;28.10;99.90;;;;;;4966554;28;20209;-79
2021/07/11 10:51:57;;;;;;;2.33;2.13;;;28.00;99.90;;;;;;4964682;28;20358;-79
2021/07/11 10:54:29;;;;;;;2.22;2.03;;;27.80;99.90;;;;;;4958237;28;20216;-79
2021/07/11 10:57:10;;;;;;;1.67;1.55;;;27.90;99.90;;;;;;4966013;28;20236;-78
2021/07/11 10:59:42;;;;;;;1.58;1.48;;;27.80;99.90;;;;;;4968408;28;20218;-78
2021/07/11 11:02:18;;;;;;;1.85;1.75;;;27.70;99.90;;;;;;4968120;28;20247;-77
2021/07/11 11:04:44;;;;;;;1.55;1.45;;;27.90;99.90;;;;;;4966492;28;20207;-79
2021/07/11 11:09:47;;;;;;;1.58;1.48;;;27.90;99.90;;;;;;5688758;23;20505;-77
2021/07/11 11:12:21;;;;;;;1.83;1.73;;;28.00;99.90;;;;;;4961614;28;20212;-78
2021/07/11 11:14:52;;;;;;;1.95;1.75;;;27.80;99.90;;;;;;4963700;28;20185;-75
2021/07/11 11:17:34;;;;;;;1.70;1.60;;;27.60;99.90;;;;;;4965070;28;20528;-79
2021/07/11 11:20:06;;;;;;;1.83;1.70;;;27.50;99.90;;;;;;4960193;28;20328;-76
2021/07/11 11:22:32;;;;;;;2.97;1.77;;;27.40;99.90;;;;;;4959103;28;20295;-77
2021/07/11 11:24:58;;;;;;;1.60;1.40;;;27.30;99.90;;;;;;4956432;28;20185;-78
2021/07/11 11:27:31;;;;;;;1.92;1.55;;;27.20;99.90;;;;;;4956389;28;20182;-78
2021/07/11 11:30:08;;;;;;;1.70;1.60;;;27.10;99.90;;;;;;4951530;28;20205;-77
2021/07/11 11:32:33;;;;;;;2.22;2.03;;;26.90;99.90;;;;;;4959696;28;20190;-77
2021/07/11 11:34:59;;;;;;;2.95;1.70;;;27.00;99.90;;;;;;4954753;28;20654;-77
2021/07/11 11:37:24;;;;;;;1.73;1.63;;;27.10;99.90;;;;;;4956359;28;20205;-77
2021/07/11 11:39:52;;;;;;;2.35;1.77;;;27.20;99.90;;;;;;4954025;28;20197;-77
2021/07/11 11:42:21;;;;;;;1.50;1.40;;;27.10;99.90;;;;;;4955865;28;20206;-77
2021/07/11 11:44:47;;;;;;;2.10;1.92;;;27.20;99.90;;;;;;4956672;28;20607;-77
2021/07/11 11:47:13;;;;;;;1.60;1.50;;;27.50;99.90;;;;;;4951676;28;20204;-77
2021/07/11 11:49:41;;;;;;;1.63;1.52;;;27.70;99.90;;;;;;4955406;28;20520;-77
2021/07/11 11:52:07;;;;;;;1.60;1.50;;;27.90;99.90;;;;;;4956652;28;20188;-77
2021/07/11 11:54:37;;;;;;;1.58;1.48;;;27.90;99.90;;;;;;4957572;28;20189;-77
2021/07/11 11:57:07;;;;;;;1.27;1.27;;;27.90;99.90;;;;;;4957629;28;20228;-78
2021/07/11 11:59:33;;;;;;;1.65;1.55;;;28.20;99.90;;;;;;4955890;28;20256;-78
2021/07/11 12:02:02;;;;;;;2.63;1.33;;;28.40;99.90;;;;;;4948366;28;20426;-76
2021/07/11 12:04:30;;;;;;;1.50;1.40;;;28.50;99.90;;;;;;4951141;28;20229;-76
2021/07/11 12:06:57;;;;;;;1.83;1.50;;;28.50;99.90;;;;;;4967911;28;20189;-75
2021/07/11 12:09:28;;;;;;;3.67;1.48;;;28.40;99.90;;;;;;4956252;28;20744;-79
2021/07/11 12:12:00;;;;;;;1.40;1.30;;;28.20;99.90;;;;;;4950981;28;20224;-76
2021/07/11 12:14:26;;;;;;;1.58;1.48;;;28.30;99.90;;;;;;4947841;28;20875;-77
2021/07/11 12:16:59;;;;;;;1.60;1.50;;;28.30;99.90;;;;;;4948915;28;20579;-77
2021/07/11 12:19:26;;;;;;;3.05;1.27;;;28.20;99.90;;;;;;4952276;28;20474;-77
2021/07/11 12:21:53;;;;;;;1.90;1.80;;;28.10;99.90;;;;;;4945640;28;20174;-77
2021/07/11 12:24:24;;;;;;;1.80;1.70;;;28.20;99.90;;;;;;4946467;28;20900;-77
2021/07/11 12:26:56;;;;;;;1.83;1.73;;;28.50;99.90;;;;;;4954692;28;20369;-77
2021/07/11 12:29:32;;;;;;;1.80;1.70;;;28.40;99.90;;;;;;4953515;28;20201;-76
2021/07/11 12:32:03;;;;;;;1.90;1.80;;;28.30;99.90;;;;;;4957725;28;20181;-77
2021/07/11 12:34:29;;;;;;;2.10;1.90;;;28.20;99.90;;;;;;4957101;28;20309;-77
2021/07/11 12:37:07;;;;;;;1.90;1.80;;;28.30;99.90;;;;;;4953692;28;20297;-77
2021/07/11 12:39:37;;;;;;;1.70;1.60;;;28.50;99.90;;;;;;4954136;28;20201;-77
2021/07/11 12:42:14;;;;;;;2.33;2.13;;;28.40;99.90;;;;;;4947348;28;20181;-77
2021/07/11 12:44:41;;;;;;;5.57;1.85;;;28.40;99.90;;;;;;4952026;28;20231;-77
2021/07/11 12:47:14;;;;;;;2.10;1.95;;;28.30;99.90;;;;;;4950652;28;20200;-77
2021/07/11 12:49:55;;;;;;;2.08;1.98;;;28.40;99.90;;;;;;4952506;28;20303;-77
2021/07/11 12:52:21;;;;;;;2.30;2.10;;;28.30;99.90;;;;;;4952253;28;20717;-77
2021/07/11 12:54:48;;;;;;;1.90;1.70;;;28.20;99.90;;;;;;4950681;28;20248;-77